createdAt,value
2018-03-06T00:01:52.908Z,94646.02
2018-03-06T00:04:21.319Z,94643.12
2018-03-06T00:06:49.665Z,94643.51
2018-03-06T00:09:18.067Z,94643.90
2018-03-06T00:11:48.341Z,94638.05
2018-03-06T00:14:18.873Z,94639.27
2018-03-06T00:16:48.242Z,94637.59
2018-03-06T00:19:16.579Z,94642.59
2018-03-06T00:21:44.915Z,94642.13
2018-03-06T00:24:13.271Z,94640.03
2018-03-06T00:26:41.606Z,94629.63
2018-03-06T00:29:11.732Z,94634.20
2018-03-06T00:31:40.076Z,94635.02
2018-03-06T00:34:08.445Z,94632.94
2018-03-06T00:36:37.586Z,94632.50
2018-03-06T00:39:06.038Z,94632.45
2018-03-06T00:41:34.592Z,94633.71
2018-03-06T00:44:02.929Z,94625.38
2018-03-06T00:46:31.248Z,94626.20
2018-03-06T00:48:59.628Z,94622.88
2018-03-06T00:51:28.094Z,94624.50
2018-03-06T00:53:59.071Z,94620.75
2018-03-06T00:56:28.288Z,94616.98
2018-03-06T00:58:57.483Z,94618.21
2018-03-06T01:01:28.509Z,94616.52
2018-03-06T01:03:56.912Z,94612.36
2018-03-06T01:06:25.291Z,94614.41
2018-03-06T01:08:53.609Z,94616.48
2018-03-06T01:11:22.791Z,94611.91
2018-03-06T01:13:51.140Z,94601.93
2018-03-06T01:16:19.595Z,94603.55
2018-03-06T01:18:47.944Z,94595.66
2018-03-06T01:21:16.393Z,94600.21
2018-03-06T01:23:45.803Z,94610.17
2018-03-06T01:26:16.867Z,94600.19
2018-03-06T01:28:45.298Z,94601.41
2018-03-06T01:31:13.629Z,94597.66
2018-03-06T01:33:42.025Z,94601.39
2018-03-06T01:36:14.830Z,94595.97
2018-03-06T01:38:43.178Z,94595.92
2018-03-06T01:41:11.510Z,94591.36
2018-03-06T01:43:39.842Z,94592.19
2018-03-06T01:46:08.183Z,94592.19
2018-03-06T01:48:36.537Z,94588.03
2018-03-06T01:51:04.881Z,94592.60
2018-03-06T01:53:33.331Z,94587.59
2018-03-06T01:56:01.677Z,94590.91
2018-03-06T01:58:30.054Z,94585.06
2018-03-06T02:00:58.459Z,94580.09
2018-03-06T02:03:26.804Z,94581.72
2018-03-06T02:05:55.187Z,94570.94
2018-03-06T02:08:23.501Z,94573.83
2018-03-06T02:10:51.911Z,94582.13
2018-03-06T02:13:20.454Z,94575.90
2018-03-06T02:15:48.934Z,94568.87
2018-03-06T02:18:17.374Z,94573.43
2018-03-06T02:20:45.829Z,94569.26
2018-03-06T02:23:14.197Z,94571.38
2018-03-06T02:25:42.555Z,94572.20
2018-03-06T02:28:11.722Z,94571.38
2018-03-06T02:30:41.673Z,94565.55
2018-03-06T02:33:10.058Z,94572.17
2018-03-06T02:35:38.508Z,94571.31
2018-03-06T02:38:08.709Z,94569.63
2018-03-06T02:40:37.092Z,94564.66
2018-03-06T02:43:07.348Z,94565.07
2018-03-06T02:45:35.727Z,94565.89
2018-03-06T02:48:04.866Z,94566.72
2018-03-06T02:50:33.229Z,94564.65
2018-03-06T02:53:04.439Z,94562.16
2018-03-06T02:55:32.896Z,94558.84
2018-03-06T02:58:02.016Z,94560.89
2018-03-06T03:00:32.118Z,94564.21
2018-03-06T03:03:02.648Z,94560.47
2018-03-06T03:05:31.154Z,94563.80
2018-03-06T03:07:59.546Z,94562.15
2018-03-06T03:10:29.472Z,94560.48
2018-03-06T03:12:57.803Z,94555.91
2018-03-06T03:15:26.184Z,94561.72
2018-03-06T03:17:55.616Z,94560.05
2018-03-06T03:20:25.798Z,94558.42
2018-03-06T03:22:54.183Z,94555.92
2018-03-06T03:25:22.600Z,94562.17
2018-03-06T03:27:50.972Z,94557.61
2018-03-06T03:30:19.403Z,94557.98
2018-03-06T03:32:49.442Z,94559.23
2018-03-06T03:35:17.874Z,94557.59
2018-03-06T03:37:46.239Z,94558.81
2018-03-06T03:40:16.260Z,94555.91
2018-03-06T03:42:44.713Z,94553.82
2018-03-06T03:45:14.999Z,94551.33
2018-03-06T03:47:43.376Z,94551.73
2018-03-06T03:50:11.754Z,94550.48
2018-03-06T03:52:42.697Z,94546.34
2018-03-06T03:55:12.710Z,94549.20
2018-03-06T03:57:41.038Z,94553.36
2018-03-06T04:00:11.159Z,94548.38
2018-03-06T04:02:39.529Z,94548.39
2018-03-06T04:05:07.874Z,94548.39
2018-03-06T04:07:37.954Z,94541.72
2018-03-06T04:10:06.460Z,94542.97
2018-03-06T04:12:34.905Z,94550.04
2018-03-06T04:15:03.384Z,94544.21
2018-03-06T04:17:33.540Z,94540.88
2018-03-06T04:20:04.080Z,94546.28
2018-03-06T04:22:34.580Z,94540.47
2018-03-06T04:25:04.519Z,94540.50
2018-03-06T04:27:32.898Z,94546.72
2018-03-06T04:30:01.393Z,94538.42
2018-03-06T04:32:29.735Z,94536.75
2018-03-06T04:34:58.162Z,94540.50
2018-03-06T04:37:28.302Z,94539.65
2018-03-06T04:39:58.386Z,94524.28
2018-03-06T04:42:26.733Z,94526.77
2018-03-06T04:44:55.098Z,94529.67
2018-03-06T04:47:23.520Z,94525.92
2018-03-06T04:49:51.898Z,94521.39
2018-03-06T04:52:21.977Z,94515.57
2018-03-06T04:54:50.442Z,94517.23
2018-03-06T04:57:20.560Z,94513.05
2018-03-06T04:59:48.941Z,94511.81
2018-03-06T05:02:19.113Z,94512.22
2018-03-06T05:04:47.635Z,94513.47
2018-03-06T05:07:16.069Z,94516.38
2018-03-06T05:09:44.462Z,94512.64
2018-03-06T05:12:12.807Z,94508.88
2018-03-06T05:14:41.139Z,94509.70
2018-03-06T05:17:09.567Z,94506.37
2018-03-06T05:19:37.998Z,94510.52
2018-03-06T05:22:08.072Z,94510.11
2018-03-06T05:24:36.440Z,94515.08
2018-03-06T05:27:04.835Z,94506.80
2018-03-06T05:29:33.182Z,94505.13
2018-03-06T05:32:04.268Z,94505.53
2018-03-06T05:34:32.723Z,94508.03
2018-03-06T05:37:01.062Z,94502.20
2018-03-06T05:39:32.054Z,94505.95
2018-03-06T05:42:00.582Z,94503.89
2018-03-06T05:44:28.968Z,94502.20
2018-03-06T05:46:59.410Z,94508.44
2018-03-06T05:49:30.398Z,94509.23
2018-03-06T05:52:00.651Z,94517.53
2018-03-06T05:54:31.692Z,94512.97
2018-03-06T05:57:00.085Z,94511.28
2018-03-06T05:59:29.167Z,94507.94
2018-03-06T06:01:57.573Z,94514.20
2018-03-06T06:04:27.562Z,94510.06
2018-03-06T06:06:58.619Z,94511.28
2018-03-06T06:09:27.966Z,94507.15
2018-03-06T06:11:56.409Z,94507.17
2018-03-06T06:14:24.777Z,94510.89
2018-03-06T06:16:53.197Z,94503.83
2018-03-06T06:19:23.331Z,94505.10
2018-03-06T06:21:53.579Z,94502.63
2018-03-06T06:24:22.167Z,94501.83
2018-03-06T06:26:51.484Z,94499.35
2018-03-06T06:29:21.759Z,94510.61
2018-03-06T06:31:50.136Z,94507.28
2018-03-06T06:34:19.435Z,94511.48
2018-03-06T06:36:47.923Z,94506.89
2018-03-06T06:39:16.352Z,94514.81
2018-03-06T06:41:44.942Z,94518.55
2018-03-06T06:44:13.349Z,94517.73
2018-03-06T06:46:43.339Z,94509.43
2018-03-06T06:49:11.865Z,94511.13
2018-03-06T06:51:41.844Z,94507.02
2018-03-06T06:54:10.610Z,94514.48
2018-03-06T06:56:38.935Z,94515.34
2018-03-06T06:59:08.115Z,94524.12
2018-03-06T07:01:36.557Z,94529.11
2018-03-06T07:04:04.992Z,94525.79
2018-03-06T07:06:33.433Z,94522.88
2018-03-06T07:09:03.580Z,94518.73
2018-03-06T07:11:32.069Z,94518.77
2018-03-06T07:14:00.699Z,94522.52
2018-03-06T07:16:29.081Z,94518.80
2018-03-06T07:18:57.415Z,94520.47
2018-03-06T07:21:26.593Z,94522.98
2018-03-06T07:23:54.927Z,94520.09
2018-03-06T07:26:24.995Z,94519.28
2018-03-06T07:28:55.083Z,94519.31
2018-03-06T07:31:25.330Z,94508.52
2018-03-06T07:33:53.866Z,94513.51
2018-03-06T07:36:22.351Z,94518.08
2018-03-06T07:38:51.584Z,94516.88
2018-03-06T07:41:20.758Z,94510.66
2018-03-06T07:43:49.117Z,94519.45
2018-03-06T07:46:17.792Z,94519.50
2018-03-06T07:48:46.170Z,94518.69
2018-03-06T07:51:14.554Z,94521.61
2018-03-06T07:53:43.595Z,94524.53
2018-03-06T07:56:12.182Z,94528.70
2018-03-06T07:58:40.579Z,94529.99
2018-03-06T08:01:09.028Z,94537.06
2018-03-06T08:03:37.444Z,94539.14
2018-03-06T08:06:08.428Z,94534.20
2018-03-06T08:08:36.821Z,94535.05
2018-03-06T08:11:05.396Z,94527.61
2018-03-06T08:13:34.518Z,94528.48
2018-03-06T08:16:03.031Z,94525.56
2018-03-06T08:18:31.382Z,94526.00
2018-03-06T08:20:59.760Z,94523.11
2018-03-06T08:23:28.175Z,94517.33
2018-03-06T08:25:56.482Z,94517.79
2018-03-06T08:28:24.824Z,94518.64
2018-03-06T08:30:56.053Z,94524.06
2018-03-06T08:33:24.620Z,94521.13
2018-03-06T08:35:53.054Z,94521.17
2018-03-06T08:38:22.227Z,94529.09
2018-03-06T08:40:51.326Z,94524.96
2018-03-06T08:43:19.622Z,94524.14
2018-03-06T08:45:47.981Z,94520.82
2018-03-06T08:48:16.388Z,94524.59
2018-03-06T08:50:44.768Z,94519.59
2018-03-06T08:53:15.680Z,94528.31
2018-03-06T08:55:44.880Z,94520.81
2018-03-06T08:58:13.985Z,94518.72
2018-03-06T09:00:42.414Z,94517.09
2018-03-06T09:03:10.812Z,94512.16
2018-03-06T09:05:40.257Z,94510.97
2018-03-06T09:08:08.599Z,94509.34
2018-03-06T09:10:36.918Z,94506.86
2018-03-06T09:13:07.004Z,94510.63
2018-03-06T09:15:35.381Z,94505.27
2018-03-06T09:18:03.828Z,94505.70
2018-03-06T09:20:32.222Z,94504.45
2018-03-06T09:23:00.599Z,94509.84
2018-03-06T09:25:29.050Z,94503.60
2018-03-06T09:27:58.256Z,94508.18
2018-03-06T09:30:26.712Z,94504.03
2018-03-06T09:32:55.065Z,94499.47
2018-03-06T09:35:23.420Z,94496.57
2018-03-06T09:37:51.774Z,94497.44
2018-03-06T09:40:20.157Z,94497.02
2018-03-06T09:42:50.381Z,94503.27
2018-03-06T09:45:20.501Z,94509.95
2018-03-06T09:47:48.851Z,94509.56
2018-03-06T09:50:17.288Z,94515.84
2018-03-06T09:52:45.756Z,94518.78
2018-03-06T09:55:17.009Z,94521.70
2018-03-06T09:57:46.210Z,94528.77
2018-03-06T10:00:16.269Z,94524.20
2018-03-06T10:02:44.676Z,94520.85
2018-03-06T10:05:13.611Z,94523.75
2018-03-06T10:07:42.073Z,94515.37
2018-03-06T10:10:10.432Z,94515.44
2018-03-06T10:12:40.551Z,94508.77
2018-03-06T10:15:09.019Z,94516.30
2018-03-06T10:17:37.338Z,94507.98
2018-03-06T10:20:05.678Z,94512.56
2018-03-06T10:22:34.010Z,94516.32
2018-03-06T10:25:02.345Z,94518.81
2018-03-06T10:27:30.701Z,94518.39
2018-03-06T10:29:59.002Z,94515.91
2018-03-06T10:32:27.360Z,94518.81
2018-03-06T10:34:58.489Z,94516.76
2018-03-06T10:37:26.874Z,94514.66
2018-03-06T10:39:55.354Z,94507.56
2018-03-06T10:42:24.452Z,94511.31
2018-03-06T10:44:55.306Z,94512.58
2018-03-06T10:47:24.478Z,94514.64
2018-03-06T10:49:52.866Z,94513.40
2018-03-06T10:52:21.236Z,94506.31
2018-03-06T10:54:51.457Z,94507.13
2018-03-06T10:57:21.600Z,94504.23
2018-03-06T10:59:50.074Z,94496.75
2018-03-06T11:02:18.447Z,94503.01
2018-03-06T11:04:46.799Z,94493.42
2018-03-06T11:07:15.842Z,94492.19
2018-03-06T11:09:44.248Z,94486.74
2018-03-06T11:12:12.589Z,94486.75
2018-03-06T11:14:40.950Z,94482.58
2018-03-06T11:17:09.325Z,94483.41
2018-03-06T11:19:37.650Z,94477.16
2018-03-06T11:22:06.019Z,94476.33
2018-03-06T11:24:34.406Z,94484.26
2018-03-06T11:27:02.778Z,94483.01
2018-03-06T11:29:31.170Z,94480.50
2018-03-06T11:31:59.496Z,94482.57
2018-03-06T11:34:29.644Z,94477.96
2018-03-06T11:36:59.088Z,94479.22
2018-03-06T11:39:27.643Z,94486.32
2018-03-06T11:41:56.240Z,94491.34
2018-03-06T11:44:24.605Z,94492.59
2018-03-06T11:46:53.814Z,94489.23
2018-03-06T11:49:22.134Z,94493.01
2018-03-06T11:51:50.577Z,94494.26
2018-03-06T11:54:20.802Z,94496.33
2018-03-06T11:56:53.212Z,94496.33
2018-03-06T11:59:21.794Z,94493.41
2018-03-06T12:01:50.234Z,94484.67
2018-03-06T12:04:18.593Z,94484.69
2018-03-06T12:06:46.886Z,94485.49
2018-03-06T12:09:15.520Z,94484.66
2018-03-06T12:11:43.948Z,94476.31
2018-03-06T12:14:12.277Z,94482.15
2018-03-06T12:16:40.683Z,94486.75
2018-03-06T12:19:09.046Z,94477.98
2018-03-06T12:21:39.145Z,94474.66
2018-03-06T12:24:07.524Z,94472.99
2018-03-06T12:26:36.552Z,94472.14
2018-03-06T12:29:05.034Z,94472.14
2018-03-06T12:31:35.239Z,94473.41
2018-03-06T12:34:03.564Z,94468.39
2018-03-06T12:36:34.397Z,94475.07
2018-03-06T12:39:02.806Z,94470.47
2018-03-06T12:41:31.193Z,94475.06
2018-03-06T12:43:59.595Z,94473.40
2018-03-06T12:46:27.962Z,94465.03
2018-03-06T12:48:58.308Z,94472.98
2018-03-06T12:51:30.789Z,94473.37
2018-03-06T12:53:59.900Z,94472.53
2018-03-06T12:56:28.251Z,94473.36
2018-03-06T12:58:56.723Z,94478.35
2018-03-06T13:01:25.117Z,94478.77
2018-03-06T13:03:53.491Z,94479.99
2018-03-06T13:06:22.014Z,94473.70
2018-03-06T13:08:50.993Z,94473.70
2018-03-06T13:11:19.313Z,94475.78
2018-03-06T13:13:47.725Z,94474.95
2018-03-06T13:16:16.163Z,94474.12
2018-03-06T13:18:46.724Z,94477.45
2018-03-06T13:21:15.395Z,94474.94
2018-03-06T13:23:43.825Z,94486.66
2018-03-06T13:26:14.240Z,94474.11
2018-03-06T13:28:46.407Z,94474.11
2018-03-06T13:31:14.769Z,94476.63
2018-03-06T13:33:43.141Z,94477.02
2018-03-06T13:36:11.655Z,94484.11
2018-03-06T13:38:40.713Z,94480.36
2018-03-06T13:41:11.016Z,94484.09
2018-03-06T13:43:39.410Z,94484.05
2018-03-06T13:46:07.765Z,94486.11
2018-03-06T13:48:37.885Z,94476.02
2018-03-06T13:51:06.286Z,94477.63
2018-03-06T13:53:34.659Z,94475.92
2018-03-06T13:56:03.123Z,94473.40
2018-03-06T13:58:32.464Z,94475.95
2018-03-06T14:01:00.955Z,94477.64
2018-03-06T14:03:29.323Z,94475.98
2018-03-06T14:05:57.820Z,94475.59
2018-03-06T14:08:26.145Z,94473.94
2018-03-06T14:10:55.156Z,94483.95
2018-03-06T14:13:23.635Z,94480.63
2018-03-06T14:15:53.664Z,94479.77
2018-03-06T14:18:22.098Z,94475.13
2018-03-06T14:20:50.465Z,94473.45
2018-03-06T14:23:18.805Z,94468.42
2018-03-06T14:25:47.146Z,94470.05
2018-03-06T14:28:15.606Z,94464.57
2018-03-06T14:30:43.961Z,94476.25
2018-03-06T14:33:12.667Z,94465.38
2018-03-06T14:35:41.225Z,94461.19
2018-03-06T14:38:10.524Z,94461.67
2018-03-06T14:40:41.767Z,94472.98
2018-03-06T14:45:44.712Z,94471.70
2018-03-06T14:48:13.040Z,94465.86
2018-03-06T14:50:43.118Z,94472.98
2018-03-06T14:53:13.675Z,94473.80
2018-03-06T14:55:42.937Z,94470.02
2018-03-06T14:58:13.383Z,94465.42
2018-03-06T15:00:44.315Z,94465.03
2018-03-06T15:03:12.711Z,94469.18
2018-03-06T15:05:41.813Z,94464.16
2018-03-06T15:08:10.187Z,94460.84
2018-03-06T15:10:38.533Z,94466.24
2018-03-06T15:13:07.771Z,94460.80
2018-03-06T15:15:36.217Z,94461.25
2018-03-06T15:18:07.120Z,94464.58
2018-03-06T15:20:35.647Z,94461.65
2018-03-06T15:23:03.979Z,94461.67
2018-03-06T15:25:32.392Z,94463.81
2018-03-06T15:28:00.955Z,94465.89
2018-03-06T15:30:29.287Z,94462.95
2018-03-06T15:33:00.575Z,94463.35
2018-03-06T15:35:28.973Z,94462.57
2018-03-06T15:37:57.346Z,94461.34
2018-03-06T15:40:25.671Z,94466.75
2018-03-06T15:42:54.088Z,94467.61
2018-03-06T15:45:22.520Z,94464.30
2018-03-06T15:47:50.858Z,94467.19
2018-03-06T15:50:19.290Z,94468.47
2018-03-06T15:52:47.661Z,94463.05
2018-03-06T15:55:17.793Z,94466.80
2018-03-06T15:57:47.771Z,94464.70
2018-03-06T16:00:18.796Z,94462.22
2018-03-06T16:02:47.215Z,94465.96
2018-03-06T16:05:15.589Z,94467.23
2018-03-06T16:07:43.943Z,94461.81
2018-03-06T16:10:12.347Z,94462.27
2018-03-06T16:12:40.860Z,94471.89
2018-03-06T16:15:09.225Z,94473.58
2018-03-06T16:17:38.513Z,94478.16
2018-03-06T16:20:06.916Z,94473.17
2018-03-06T16:22:35.363Z,94480.70
2018-03-06T16:25:03.994Z,94487.38
2018-03-06T16:27:35.033Z,94487.80
2018-03-06T16:30:03.496Z,94485.33
2018-03-06T16:32:32.062Z,94483.24
2018-03-06T16:35:00.434Z,94486.61
2018-03-06T16:37:29.876Z,94492.03
2018-03-06T16:39:58.208Z,94494.16
2018-03-06T16:42:28.439Z,94498.74
2018-03-06T16:44:56.816Z,94498.33
2018-03-06T16:47:25.198Z,94500.41
2018-03-06T16:49:53.581Z,94505.86
2018-03-06T16:52:22.098Z,94506.27
2018-03-06T16:54:52.480Z,94513.37
2018-03-06T16:57:20.943Z,94516.31
2018-03-06T16:59:49.342Z,94520.92
2018-03-06T17:02:20.345Z,94523.83
2018-03-06T17:04:48.801Z,94526.35
2018-03-06T17:07:17.260Z,94526.77
2018-03-06T17:09:45.658Z,94533.45
2018-03-06T17:12:14.108Z,94536.39
2018-03-06T17:14:44.189Z,94538.47
2018-03-06T17:17:12.668Z,94550.16
2018-03-06T17:19:42.880Z,94546.00
2018-03-06T17:22:11.235Z,94545.57
2018-03-06T17:24:39.578Z,94551.85
2018-03-06T17:27:08.877Z,94542.23
2018-03-06T17:29:37.319Z,94551.84
2018-03-06T17:32:05.867Z,94551.84
2018-03-06T17:34:34.950Z,94552.67
2018-03-06T17:37:03.382Z,94550.59
2018-03-06T17:39:31.685Z,94549.75
2018-03-06T17:42:00.063Z,94558.55
2018-03-06T17:44:28.447Z,94553.94
2018-03-06T17:46:58.486Z,94553.94
2018-03-06T17:49:26.937Z,94557.68
2018-03-06T17:51:55.312Z,94546.83
2018-03-06T17:54:24.003Z,94553.92
2018-03-06T17:56:53.302Z,94553.53
2018-03-06T17:59:21.756Z,94558.53
2018-03-06T18:01:50.328Z,94560.62
2018-03-06T18:04:20.485Z,94557.28
2018-03-06T18:06:48.919Z,94569.37
2018-03-06T18:09:18.192Z,94572.70
2018-03-06T18:11:46.604Z,94570.61
2018-03-06T18:14:15.237Z,94572.70
2018-03-06T18:16:43.597Z,94582.29
2018-03-06T18:19:12.027Z,94585.61
2018-03-06T18:21:40.513Z,94574.77
2018-03-06T18:24:08.957Z,94578.92
2018-03-06T18:26:38.189Z,94583.12
2018-03-06T18:29:07.596Z,94574.75
2018-03-06T18:31:35.962Z,94572.66
2018-03-06T18:34:05.478Z,94579.33
2018-03-06T18:36:36.436Z,94588.52
2018-03-06T18:39:05.908Z,94580.17
2018-03-06T18:41:34.337Z,94583.50
2018-03-06T18:44:02.875Z,94586.02
2018-03-06T18:46:32.079Z,94583.92
2018-03-06T18:49:02.237Z,94590.60
2018-03-06T18:51:31.249Z,94587.67
2018-03-06T18:53:59.733Z,94588.49
2018-03-06T18:56:28.146Z,94592.66
2018-03-06T18:58:56.580Z,94591.00
2018-03-06T19:05:00.399Z,94594.73
2018-03-06T19:07:28.855Z,94590.58
2018-03-06T19:09:58.034Z,94598.92
2018-03-06T19:12:26.421Z,94596.00
2018-03-06T19:14:56.352Z,94599.33
2018-03-06T19:17:27.139Z,94596.00
2018-03-06T19:19:56.679Z,94598.92
2018-03-06T19:22:25.117Z,94590.17
2018-03-06T19:24:55.333Z,94594.34
2018-03-06T19:27:23.676Z,94588.07
2018-03-06T19:29:53.114Z,94591.42
2018-03-06T19:32:21.458Z,94595.16
2018-03-06T19:34:51.541Z,94602.69
2018-03-06T19:37:19.987Z,94598.50
2018-03-06T19:39:50.093Z,94603.11
2018-03-06T19:42:18.489Z,94610.18
2018-03-06T19:44:46.922Z,94612.28
2018-03-06T19:47:15.261Z,94613.13
2018-03-06T19:49:43.710Z,94620.63
2018-03-06T19:52:12.300Z,94618.97
2018-03-06T19:54:40.640Z,94619.39
2018-03-06T19:57:10.661Z,94622.72
2018-03-06T19:59:41.504Z,94630.64
2018-03-06T20:02:10.126Z,94633.98
2018-03-06T20:04:42.206Z,94634.41
2018-03-06T20:07:10.860Z,94638.55
2018-03-06T20:09:42.870Z,94643.15
2018-03-06T20:12:12.991Z,94641.91
2018-03-06T20:14:47.056Z,94644.84
2018-03-06T20:17:18.186Z,94651.50
2018-03-06T20:19:46.606Z,94654.42
2018-03-06T20:22:15.221Z,94653.16
2018-03-06T20:24:49.111Z,94651.50
2018-03-06T20:27:17.766Z,94651.08
2018-03-06T20:29:46.169Z,94654.42
2018-03-06T20:32:20.188Z,94655.23
2018-03-06T20:34:48.650Z,94661.09
2018-03-06T20:37:17.014Z,94658.18
2018-03-06T20:39:51.078Z,94661.92
2018-03-06T20:42:21.374Z,94658.16
2018-03-06T20:44:54.010Z,94661.94
2018-03-06T20:47:22.535Z,94662.36
2018-03-06T20:49:51.209Z,94664.00
2018-03-06T20:52:19.676Z,94663.59
2018-03-06T20:54:53.700Z,94671.10
2018-03-06T20:57:23.811Z,94661.52
2018-03-06T20:59:54.046Z,94661.52
2018-03-06T21:02:22.441Z,94659.86
2018-03-06T21:04:50.925Z,94656.48
2018-03-06T21:07:19.280Z,94656.91
2018-03-06T21:09:47.667Z,94658.16
2018-03-06T21:12:15.996Z,94655.68
2018-03-06T21:14:44.585Z,94649.81
2018-03-06T21:17:15.256Z,94654.81
2018-03-06T21:19:43.628Z,94659.01
2018-03-06T21:22:13.780Z,94663.17
2018-03-06T21:24:43.766Z,94659.41
2018-03-06T21:27:12.170Z,94658.59
2018-03-06T21:29:40.499Z,94661.09
2018-03-06T21:32:10.582Z,94659.41
2018-03-06T21:34:39.335Z,94653.56
2018-03-06T21:37:07.672Z,94651.48
2018-03-06T21:39:36.076Z,94648.16
2018-03-06T21:42:04.454Z,94647.73
2018-03-06T21:44:32.827Z,94650.23
2018-03-06T21:47:01.239Z,94659.80
2018-03-06T21:49:30.306Z,94660.65
2018-03-06T21:54:33.482Z,94652.30
2018-03-06T21:57:01.808Z,94650.64
2018-03-06T21:59:30.202Z,94648.97
2018-03-06T22:01:58.561Z,94656.90
2018-03-06T22:04:26.963Z,94666.48
2018-03-06T22:06:58.111Z,94675.27
2018-03-06T22:09:26.490Z,94675.70
2018-03-06T22:11:54.900Z,94678.61
2018-03-06T22:14:25.458Z,94675.22
2018-03-06T22:16:55.546Z,94672.68
2018-03-06T22:19:25.787Z,94676.84
2018-03-06T22:21:54.108Z,94673.91
2018-03-06T22:24:23.199Z,94675.98
2018-03-06T22:26:52.259Z,94676.37
2018-03-06T22:29:20.707Z,94668.44
2018-03-06T22:31:49.235Z,94672.17
2018-03-06T22:34:17.621Z,94683.44
2018-03-06T22:36:45.961Z,94685.09
2018-03-06T22:39:14.363Z,94687.16
2018-03-06T22:41:42.772Z,94688.81
2018-03-06T22:44:11.210Z,94691.72
2018-03-06T22:46:39.576Z,94695.47
2018-03-06T22:49:08.671Z,94693.38
2018-03-06T22:51:37.307Z,94699.22
2018-03-06T22:54:05.670Z,94705.04
2018-03-06T22:56:34.821Z,94693.38
2018-03-06T22:59:03.216Z,94700.46
2018-03-06T23:01:33.398Z,94701.69
2018-03-06T23:04:03.640Z,94702.53
2018-03-06T23:06:34.221Z,94697.94
2018-03-06T23:09:02.556Z,94695.83
2018-03-06T23:11:30.992Z,94698.33
2018-03-06T23:14:01.705Z,94701.64
2018-03-06T23:16:30.134Z,94702.05
2018-03-06T23:18:58.651Z,94701.63
2018-03-06T23:21:27.008Z,94707.48
2018-03-06T23:23:55.354Z,94709.98
2018-03-06T23:26:24.747Z,94706.64
2018-03-06T23:28:53.217Z,94713.69
2018-03-06T23:31:21.536Z,94708.64
2018-03-06T23:33:51.913Z,94712.36
2018-03-06T23:36:21.102Z,94711.52
2018-03-06T23:38:51.284Z,94716.52
2018-03-06T23:41:19.660Z,94716.08
2018-03-06T23:43:48.014Z,94714.84
2018-03-06T23:46:17.127Z,94716.52
2018-03-06T23:48:45.486Z,94717.77
2018-03-06T23:51:13.853Z,94715.28
2018-03-06T23:53:42.355Z,94719.05
2018-03-06T23:56:10.817Z,94719.84
2018-03-06T23:58:39.206Z,94719.00
